createdAt,value
2018-12-11T00:04:37.391Z,3.73
2018-12-11T00:09:21.476Z,3.50
2018-12-11T00:14:05.718Z,4.10
2018-12-11T00:18:50.024Z,3.83
2018-12-11T00:23:34.210Z,3.90
2018-12-11T00:28:18.143Z,3.47
2018-12-11T00:33:02.295Z,3.73
2018-12-11T00:37:46.791Z,3.30
2018-12-11T00:42:31.475Z,3.70
2018-12-11T00:47:20.881Z,2.20
2018-12-11T00:52:05.323Z,2.20
2018-12-11T00:56:49.483Z,1.90
2018-12-11T01:01:33.636Z,1.80
2018-12-11T01:06:22.953Z,1.40
2018-12-11T01:11:06.766Z,2.10
2018-12-11T01:15:50.685Z,2.03
2018-12-11T01:20:34.586Z,2.33
2018-12-11T01:25:18.637Z,2.00
2018-12-11T01:30:02.753Z,2.53
2018-12-11T01:34:46.635Z,2.87
2018-12-11T01:39:30.393Z,2.47
2018-12-11T01:44:14.296Z,3.03
2018-12-11T01:48:58.159Z,2.93
2018-12-11T01:53:42.410Z,3.40
2018-12-11T01:58:28.323Z,3.43
2018-12-11T02:03:30.322Z,3.60
2018-12-11T02:08:14.006Z,4.43
2018-12-11T02:12:57.858Z,4.03
2018-12-11T02:17:41.640Z,3.43
2018-12-11T02:22:25.461Z,3.00
2018-12-11T02:27:09.252Z,3.27
2018-12-11T02:31:53.456Z,3.50
2018-12-11T02:36:37.156Z,2.97
2018-12-11T02:41:21.145Z,3.47
2018-12-11T02:46:04.836Z,3.00
2018-12-11T02:50:48.783Z,3.53
2018-12-11T02:55:32.574Z,3.50
2018-12-11T03:00:17.480Z,3.03
2018-12-11T03:05:01.257Z,3.00
2018-12-11T03:09:45.198Z,3.20
2018-12-11T03:14:28.961Z,3.30
2018-12-11T03:19:12.831Z,3.20
2018-12-11T03:23:56.595Z,2.97
2018-12-11T03:28:40.532Z,3.90
2018-12-11T03:33:24.263Z,3.73
2018-12-11T03:38:08.066Z,3.77
2018-12-11T03:42:51.729Z,4.77
2018-12-11T03:47:35.636Z,4.03
2018-12-11T03:52:21.562Z,3.90
2018-12-11T03:57:05.188Z,3.47
2018-12-11T04:01:53.670Z,3.57
2018-12-11T04:06:37.583Z,3.37
2018-12-11T04:11:21.424Z,3.47
2018-12-11T04:16:05.206Z,3.07
2018-12-11T04:20:48.977Z,3.37
2018-12-11T04:25:32.779Z,3.80
2018-12-11T04:30:16.645Z,4.03
2018-12-11T04:35:00.411Z,4.63
2018-12-11T04:39:44.216Z,4.17
2018-12-11T04:44:27.898Z,3.97
2018-12-11T04:49:11.643Z,4.10
2018-12-11T04:53:55.343Z,3.80
2018-12-11T04:58:39.398Z,4.80
2018-12-11T05:03:23.160Z,4.57
2018-12-11T05:08:11.075Z,3.90
2018-12-11T05:12:54.762Z,4.80
2018-12-11T05:17:38.668Z,4.67
2018-12-11T05:22:22.549Z,4.63
2018-12-11T05:27:06.318Z,4.53
2018-12-11T05:31:50.030Z,4.27
2018-12-11T05:36:33.845Z,3.83
2018-12-11T05:41:25.850Z,3.53
2018-12-11T05:46:16.282Z,5.77
2018-12-11T05:51:18.912Z,3.30
2018-12-11T06:11:33.439Z,3.43
2018-12-11T06:21:27.927Z,3.80
2018-12-11T06:26:11.919Z,4.13
2018-12-11T06:30:55.707Z,4.57
2018-12-11T06:40:23.835Z,3.23
2018-12-11T06:45:07.683Z,3.10
2018-12-11T06:49:51.359Z,3.77
2018-12-11T06:54:46.962Z,4.03
2018-12-11T07:04:38.582Z,3.50
2018-12-11T07:24:57.490Z,3.57
2018-12-11T07:40:02.853Z,2.93
2018-12-11T07:44:46.636Z,4.00
2018-12-11T07:49:30.396Z,3.67
2018-12-11T07:54:14.198Z,3.93
2018-12-11T07:58:57.933Z,3.97
2018-12-11T08:03:41.784Z,3.77
2018-12-11T08:08:25.863Z,3.70
2018-12-11T08:13:09.637Z,3.73
2018-12-11T08:17:53.367Z,4.13
2018-12-11T08:22:37.049Z,4.00
2018-12-11T08:27:20.830Z,3.73
2018-12-11T08:32:04.589Z,4.00
2018-12-11T08:36:48.563Z,4.83
2018-12-11T08:41:32.318Z,4.50
2018-12-11T08:46:16.108Z,4.33
2018-12-11T08:50:59.964Z,4.40
2018-12-11T08:55:43.770Z,4.73
2018-12-11T09:00:27.469Z,4.00
2018-12-11T09:05:11.322Z,3.93
2018-12-11T09:09:55.086Z,4.43
2018-12-11T09:14:38.822Z,4.13
2018-12-11T09:19:22.654Z,4.60
2018-12-11T09:24:06.524Z,4.07
2018-12-11T09:28:50.422Z,4.53
2018-12-11T09:33:34.220Z,3.57
2018-12-11T09:38:18.021Z,4.23
2018-12-11T09:43:01.779Z,5.33
2018-12-11T09:47:45.594Z,4.83
2018-12-11T09:52:29.351Z,4.97
2018-12-11T09:57:13.093Z,4.57
2018-12-11T10:01:57.011Z,5.33
2018-12-11T10:06:40.736Z,5.33
2018-12-11T10:11:24.410Z,6.47
2018-12-11T10:16:08.400Z,5.53
2018-12-11T10:20:52.125Z,5.70
2018-12-11T10:25:35.836Z,5.13
2018-12-11T10:30:19.667Z,6.20
2018-12-11T10:35:03.558Z,5.83
2018-12-11T10:39:47.242Z,5.30
2018-12-11T10:44:30.921Z,5.97
2018-12-11T10:49:14.766Z,5.83
2018-12-11T10:53:58.566Z,5.63
2018-12-11T10:58:42.321Z,6.33
2018-12-11T11:03:26.014Z,9.00
2018-12-11T11:08:09.768Z,7.27
2018-12-11T11:12:53.486Z,7.50
2018-12-11T11:17:37.502Z,6.83
2018-12-11T11:22:21.264Z,6.90
2018-12-11T11:27:05.158Z,7.67
2018-12-11T11:31:48.881Z,6.87
2018-12-11T11:36:32.622Z,6.33
2018-12-11T11:41:16.349Z,6.40
2018-12-11T11:46:00.278Z,6.03
2018-12-11T11:50:44.093Z,5.97
2018-12-11T11:55:27.836Z,6.73
2018-12-11T12:00:14.401Z,7.23
2018-12-11T12:04:58.218Z,6.00
2018-12-11T12:09:42.092Z,6.40
2018-12-11T12:14:25.783Z,6.90
2018-12-11T12:19:09.620Z,6.73
2018-12-11T12:23:53.289Z,5.93
2018-12-11T12:28:37.073Z,7.73
2018-12-11T12:33:20.757Z,7.30
2018-12-11T12:38:04.422Z,7.10
2018-12-11T12:42:48.167Z,6.37
2018-12-11T12:47:32.013Z,7.23
2018-12-11T12:52:15.891Z,6.43
2018-12-11T12:56:59.666Z,8.67
2018-12-11T13:01:43.415Z,7.33
2018-12-11T13:06:28.314Z,7.70
2018-12-11T13:11:12.105Z,7.00
2018-12-11T13:15:56.043Z,8.50
2018-12-11T13:20:39.865Z,7.13
2018-12-11T13:25:23.558Z,8.27
2018-12-11T13:30:07.773Z,6.90
2018-12-11T13:34:51.515Z,8.20
2018-12-11T13:39:35.368Z,8.17
2018-12-11T13:44:19.474Z,7.43
2018-12-11T13:49:03.141Z,7.10
2018-12-11T13:53:46.885Z,7.40
2018-12-11T13:58:30.504Z,7.37
2018-12-11T14:03:14.196Z,8.07
2018-12-11T14:07:58.116Z,7.27
2018-12-11T14:12:41.829Z,7.17
2018-12-11T14:17:25.468Z,8.07
2018-12-11T14:22:09.286Z,7.93
2018-12-11T14:26:53.110Z,7.40
2018-12-11T14:31:36.826Z,7.20
2018-12-11T14:36:20.598Z,7.30
2018-12-11T14:41:04.243Z,6.80
2018-12-11T14:45:48.251Z,6.57
2018-12-11T14:50:32.096Z,7.73
2018-12-11T14:55:15.965Z,6.70
2018-12-11T14:59:59.732Z,8.30
2018-12-11T15:04:43.581Z,7.70
2018-12-11T15:09:32.682Z,8.37
2018-12-11T15:14:16.394Z,6.80
2018-12-11T15:19:02.880Z,6.50
2018-12-11T15:23:48.772Z,7.20
2018-12-11T15:28:32.468Z,7.53
2018-12-11T15:33:16.179Z,6.27
2018-12-11T15:37:59.889Z,7.07
2018-12-11T15:42:43.560Z,6.63
2018-12-11T15:47:27.329Z,6.30
2018-12-11T15:57:22.543Z,6.23
2018-12-11T16:02:06.571Z,7.10
2018-12-11T16:07:09.924Z,6.37
2018-12-11T16:11:53.672Z,5.30
2018-12-11T16:16:37.350Z,5.80
2018-12-11T16:21:21.185Z,5.30
2018-12-11T16:26:05.037Z,5.37
2018-12-11T16:46:27.192Z,5.07
2018-12-11T16:51:29.072Z,5.57
2018-12-11T16:56:27.007Z,5.20
2018-12-11T17:11:49.035Z,5.80
2018-12-11T17:16:34.339Z,5.10
2018-12-11T17:21:18.302Z,5.20
2018-12-11T17:26:02.123Z,5.20
2018-12-11T17:46:46.613Z,5.83
2018-12-11T17:51:36.145Z,6.40
2018-12-11T17:56:26.512Z,5.83
2018-12-11T18:01:10.406Z,6.37
2018-12-11T18:05:54.777Z,6.10
2018-12-11T18:10:44.049Z,6.63
2018-12-11T18:26:08.673Z,6.63
2018-12-11T18:31:12.871Z,6.57
2018-12-11T18:36:14.235Z,8.65
2018-12-11T18:46:24.470Z,5.53
2018-12-11T18:56:40.456Z,5.73
2018-12-11T19:01:41.241Z,6.43
2018-12-11T19:11:41.460Z,6.90
2018-12-11T19:16:35.992Z,7.03
2018-12-11T19:31:53.996Z,7.27
2018-12-11T19:36:37.955Z,7.27
2018-12-11T19:46:32.763Z,7.20
2018-12-11T19:51:16.771Z,7.43
2018-12-11T19:56:03.527Z,7.37
2018-12-11T20:00:48.612Z,8.07
2018-12-11T20:05:33.380Z,8.53
2018-12-11T20:10:18.499Z,7.60
2018-12-11T20:15:04.877Z,7.03
2018-12-11T20:19:48.516Z,7.07
2018-12-11T21:33:02.673Z,6.27
2018-12-11T21:37:47.883Z,5.77
2018-12-11T21:42:43.585Z,6.60
2018-12-11T21:47:33.855Z,6.23
2018-12-11T21:52:35.471Z,6.27
2018-12-11T21:57:31.618Z,5.73
2018-12-11T22:02:23.705Z,4.87
2018-12-11T22:07:27.183Z,4.87
2018-12-11T22:12:15.583Z,3.90
2018-12-11T22:17:12.393Z,4.40
2018-12-11T22:21:59.576Z,3.80
2018-12-11T22:32:00.263Z,4.07
2018-12-11T22:37:15.897Z,2.40
2018-12-11T22:42:09.999Z,2.40
2018-12-11T22:47:14.273Z,2.07
2018-12-11T22:52:08.761Z,2.07
2018-12-11T22:57:05.565Z,1.80
2018-12-11T23:02:11.011Z,1.90
2018-12-11T23:07:24.873Z,4.10
2018-12-11T23:17:35.224Z,5.17
2018-12-11T23:22:36.455Z,6.13
2018-12-11T23:27:23.045Z,5.73
2018-12-11T23:32:10.477Z,5.83
2018-12-11T23:37:07.062Z,4.60
2018-12-11T23:41:52.651Z,5.23
2018-12-11T23:46:43.803Z,5.57
2018-12-11T23:51:29.255Z,6.40
2018-12-11T23:56:25.643Z,6.17
